sensor_id;sensor_type;location;lat;lon;timestamp;temperature;humidity
9808;DHT22;4943;52.550;13.462;2023-07-08T00:02:15;22.00;86.10
9808;DHT22;4943;52.550;13.462;2023-07-08T00:04:44;21.90;86.30
9808;DHT22;4943;52.550;13.462;2023-07-08T00:07:16;21.90;86.60
9808;DHT22;4943;52.550;13.462;2023-07-08T00:09:47;21.90;86.90
9808;DHT22;4943;52.550;13.462;2023-07-08T00:12:15;21.80;87.60
9808;DHT22;4943;52.550;13.462;2023-07-08T00:14:43;21.80;87.10
9808;DHT22;4943;52.550;13.462;2023-07-08T00:17:12;21.80;87.30
9808;DHT22;4943;52.550;13.462;2023-07-08T00:19:40;21.80;87.60
9808;DHT22;4943;52.550;13.462;2023-07-08T00:22:13;21.80;87.70
9808;DHT22;4943;52.550;13.462;2023-07-08T00:24:42;21.70;87.80
9808;DHT22;4943;52.550;13.462;2023-07-08T00:27:11;21.70;87.90
9808;DHT22;4943;52.550;13.462;2023-07-08T00:29:40;21.60;87.90
9808;DHT22;4943;52.550;13.462;2023-07-08T00:32:11;21.60;88.10
9808;DHT22;4943;52.550;13.462;2023-07-08T00:34:39;21.60;88.00
9808;DHT22;4943;52.550;13.462;2023-07-08T00:37:10;21.50;88.10
9808;DHT22;4943;52.550;13.462;2023-07-08T00:39:40;21.60;88.10
9808;DHT22;4943;52.550;13.462;2023-07-08T00:42:21;21.60;88.10
9808;DHT22;4943;52.550;13.462;2023-07-08T00:44:52;21.60;88.10
9808;DHT22;4943;52.550;13.462;2023-07-08T00:47:20;21.50;88.10
9808;DHT22;4943;52.550;13.462;2023-07-08T00:49:54;21.50;88.20
9808;DHT22;4943;52.550;13.462;2023-07-08T00:52:25;21.50;88.30
9808;DHT22;4943;52.550;13.462;2023-07-08T00:54:56;21.40;88.20
9808;DHT22;4943;52.550;13.462;2023-07-08T00:57:27;21.40;88.40
9808;DHT22;4943;52.550;13.462;2023-07-08T00:59:59;21.30;88.30
9808;DHT22;4943;52.550;13.462;2023-07-08T01:02:28;21.40;88.50
9808;DHT22;4943;52.550;13.462;2023-07-08T01:05:01;21.30;88.40
9808;DHT22;4943;52.550;13.462;2023-07-08T01:07:31;21.30;88.40
9808;DHT22;4943;52.550;13.462;2023-07-08T01:10:04;21.30;88.30
9808;DHT22;4943;52.550;13.462;2023-07-08T01:12:36;21.20;88.40
9808;DHT22;4943;52.550;13.462;2023-07-08T01:15:07;21.20;88.30
9808;DHT22;4943;52.550;13.462;2023-07-08T01:17:36;21.20;88.40
9808;DHT22;4943;52.550;13.462;2023-07-08T01:20:06;21.20;88.30
9808;DHT22;4943;52.550;13.462;2023-07-08T01:22:41;21.10;88.40
9808;DHT22;4943;52.550;13.462;2023-07-08T01:25:11;21.10;88.40
9808;DHT22;4943;52.550;13.462;2023-07-08T01:27:42;21.00;88.30
9808;DHT22;4943;52.550;13.462;2023-07-08T01:30:11;21.00;88.40
9808;DHT22;4943;52.550;13.462;2023-07-08T01:32:46;21.00;89.30
9808;DHT22;4943;52.550;13.462;2023-07-08T01:35:15;21.00;88.70
9808;DHT22;4943;52.550;13.462;2023-07-08T01:37:48;20.90;88.70
9808;DHT22;4943;52.550;13.462;2023-07-08T01:40:24;21.00;88.90
9808;DHT22;4943;52.550;13.462;2023-07-08T01:42:53;21.00;89.00
9808;DHT22;4943;52.550;13.462;2023-07-08T01:45:22;20.90;89.10
9808;DHT22;4943;52.550;13.462;2023-07-08T01:47:53;20.90;89.10
9808;DHT22;4943;52.550;13.462;2023-07-08T01:50:23;20.90;89.30
9808;DHT22;4943;52.550;13.462;2023-07-08T01:52:56;20.90;89.30
9808;DHT22;4943;52.550;13.462;2023-07-08T01:55:26;20.90;89.40
9808;DHT22;4943;52.550;13.462;2023-07-08T01:57:55;20.90;89.40
9808;DHT22;4943;52.550;13.462;2023-07-08T02:00:23;20.90;89.40
9808;DHT22;4943;52.550;13.462;2023-07-08T02:02:51;20.80;89.30
9808;DHT22;4943;52.550;13.462;2023-07-08T02:05:19;20.80;89.30
9808;DHT22;4943;52.550;13.462;2023-07-08T02:07:48;20.80;89.40
9808;DHT22;4943;52.550;13.462;2023-07-08T02:10:17;20.70;89.30
9808;DHT22;4943;52.550;13.462;2023-07-08T02:12:45;20.70;89.40
9808;DHT22;4943;52.550;13.462;2023-07-08T02:15:13;20.70;89.50
9808;DHT22;4943;52.550;13.462;2023-07-08T02:17:41;20.70;89.70
9808;DHT22;4943;52.550;13.462;2023-07-08T02:20:10;20.60;89.70
9808;DHT22;4943;52.550;13.462;2023-07-08T02:22:38;20.60;89.80
9808;DHT22;4943;52.550;13.462;2023-07-08T02:25:07;20.60;90.20
9808;DHT22;4943;52.550;13.462;2023-07-08T02:27:38;20.60;90.00
9808;DHT22;4943;52.550;13.462;2023-07-08T02:30:07;20.50;90.00
9808;DHT22;4943;52.550;13.462;2023-07-08T02:32:35;20.50;90.00
9808;DHT22;4943;52.550;13.462;2023-07-08T02:35:06;20.50;90.00
9808;DHT22;4943;52.550;13.462;2023-07-08T02:37:35;20.50;90.00
9808;DHT22;4943;52.550;13.462;2023-07-08T02:40:03;20.40;90.00
9808;DHT22;4943;52.550;13.462;2023-07-08T02:42:33;20.40;90.10
9808;DHT22;4943;52.550;13.462;2023-07-08T02:45:03;20.40;90.50
9808;DHT22;4943;52.550;13.462;2023-07-08T02:47:31;20.40;90.20
9808;DHT22;4943;52.550;13.462;2023-07-08T02:49:59;20.40;90.30
9808;DHT22;4943;52.550;13.462;2023-07-08T02:52:27;20.40;90.30
9808;DHT22;4943;52.550;13.462;2023-07-08T02:54:55;20.40;90.40
9808;DHT22;4943;52.550;13.462;2023-07-08T02:57:23;20.30;90.40
9808;DHT22;4943;52.550;13.462;2023-07-08T02:59:51;20.30;90.40
9808;DHT22;4943;52.550;13.462;2023-07-08T03:02:21;20.20;90.40
9808;DHT22;4943;52.550;13.462;2023-07-08T03:04:49;20.20;90.50
9808;DHT22;4943;52.550;13.462;2023-07-08T03:07:18;20.10;90.50
9808;DHT22;4943;52.550;13.462;2023-07-08T03:09:45;20.10;90.60
9808;DHT22;4943;52.550;13.462;2023-07-08T03:12:14;20.10;90.70
9808;DHT22;4943;52.550;13.462;2023-07-08T03:14:42;20.10;90.80
9808;DHT22;4943;52.550;13.462;2023-07-08T03:17:10;20.10;90.80
9808;DHT22;4943;52.550;13.462;2023-07-08T03:19:40;20.10;90.90
9808;DHT22;4943;52.550;13.462;2023-07-08T03:22:08;20.10;91.00
9808;DHT22;4943;52.550;13.462;2023-07-08T03:24:36;20.10;91.10
9808;DHT22;4943;52.550;13.462;2023-07-08T03:27:13;20.20;91.60
9808;DHT22;4943;52.550;13.462;2023-07-08T03:29:42;20.50;92.10
9808;DHT22;4943;52.550;13.462;2023-07-08T03:32:11;20.80;92.30
9808;DHT22;4943;52.550;13.462;2023-07-08T03:34:41;21.20;92.50
9808;DHT22;4943;52.550;13.462;2023-07-08T03:37:09;21.60;92.60
9808;DHT22;4943;52.550;13.462;2023-07-08T03:39:37;22.00;92.70
9808;DHT22;4943;52.550;13.462;2023-07-08T03:42:06;22.40;92.70
9808;DHT22;4943;52.550;13.462;2023-07-08T03:44:34;22.80;92.70
9808;DHT22;4943;52.550;13.462;2023-07-08T03:47:03;23.10;92.50
9808;DHT22;4943;52.550;13.462;2023-07-08T03:49:31;23.30;92.40
9808;DHT22;4943;52.550;13.462;2023-07-08T03:52:01;23.60;92.30
9808;DHT22;4943;52.550;13.462;2023-07-08T03:54:29;23.80;92.40
9808;DHT22;4943;52.550;13.462;2023-07-08T03:56:57;23.90;91.70
9808;DHT22;4943;52.550;13.462;2023-07-08T03:59:25;24.10;91.70
9808;DHT22;4943;52.550;13.462;2023-07-08T04:01:53;24.20;91.60
9808;DHT22;4943;52.550;13.462;2023-07-08T04:04:21;24.40;91.80
9808;DHT22;4943;52.550;13.462;2023-07-08T04:06:49;24.40;92.00
9808;DHT22;4943;52.550;13.462;2023-07-08T04:09:20;24.50;91.60
9808;DHT22;4943;52.550;13.462;2023-07-08T04:11:48;24.50;91.60
9808;DHT22;4943;52.550;13.462;2023-07-08T04:14:16;24.50;91.40
9808;DHT22;4943;52.550;13.462;2023-07-08T04:16:48;24.50;91.60
9808;DHT22;4943;52.550;13.462;2023-07-08T04:19:18;24.40;90.90
9808;DHT22;4943;52.550;13.462;2023-07-08T04:21:46;24.30;90.80
9808;DHT22;4943;52.550;13.462;2023-07-08T04:24:16;24.30;90.80
9808;DHT22;4943;52.550;13.462;2023-07-08T04:26:47;24.20;90.30
9808;DHT22;4943;52.550;13.462;2023-07-08T04:29:17;23.90;89.90
9808;DHT22;4943;52.550;13.462;2023-07-08T04:31:46;23.70;89.60
9808;DHT22;4943;52.550;13.462;2023-07-08T04:34:14;23.40;90.10
9808;DHT22;4943;52.550;13.462;2023-07-08T04:36:43;23.20;90.00
9808;DHT22;4943;52.550;13.462;2023-07-08T04:39:11;23.00;90.10
9808;DHT22;4943;52.550;13.462;2023-07-08T04:41:40;22.80;90.30
9808;DHT22;4943;52.550;13.462;2023-07-08T04:44:12;22.60;90.50
9808;DHT22;4943;52.550;13.462;2023-07-08T04:46:43;22.50;90.80
9808;DHT22;4943;52.550;13.462;2023-07-08T04:49:13;22.40;91.00
9808;DHT22;4943;52.550;13.462;2023-07-08T04:51:41;22.30;91.10
9808;DHT22;4943;52.550;13.462;2023-07-08T04:54:09;22.30;91.60
9808;DHT22;4943;52.550;13.462;2023-07-08T04:56:40;22.30;91.40
9808;DHT22;4943;52.550;13.462;2023-07-08T04:59:09;22.30;91.50
9808;DHT22;4943;52.550;13.462;2023-07-08T05:01:39;22.20;91.50
9808;DHT22;4943;52.550;13.462;2023-07-08T05:04:08;22.20;91.40
9808;DHT22;4943;52.550;13.462;2023-07-08T05:06:37;22.10;91.40
9808;DHT22;4943;52.550;13.462;2023-07-08T05:09:05;22.10;91.40
9808;DHT22;4943;52.550;13.462;2023-07-08T05:11:35;22.10;91.50
9808;DHT22;4943;52.550;13.462;2023-07-08T05:14:04;22.10;91.40
9808;DHT22;4943;52.550;13.462;2023-07-08T05:16:34;22.20;91.40
9808;DHT22;4943;52.550;13.462;2023-07-08T05:19:04;22.20;91.30
9808;DHT22;4943;52.550;13.462;2023-07-08T05:21:32;22.20;91.10
9808;DHT22;4943;52.550;13.462;2023-07-08T05:24:02;22.10;91.20
9808;DHT22;4943;52.550;13.462;2023-07-08T05:26:31;22.10;91.30
9808;DHT22;4943;52.550;13.462;2023-07-08T05:28:59;22.10;91.30
9808;DHT22;4943;52.550;13.462;2023-07-08T05:31:28;22.10;91.30
9808;DHT22;4943;52.550;13.462;2023-07-08T05:33:59;22.10;91.30
9808;DHT22;4943;52.550;13.462;2023-07-08T05:36:28;22.10;91.40
9808;DHT22;4943;52.550;13.462;2023-07-08T05:38:56;22.10;91.40
9808;DHT22;4943;52.550;13.462;2023-07-08T05:41:24;22.10;91.50
9808;DHT22;4943;52.550;13.462;2023-07-08T05:43:52;22.20;91.60
9808;DHT22;4943;52.550;13.462;2023-07-08T05:46:20;22.30;91.70
9808;DHT22;4943;52.550;13.462;2023-07-08T05:48:48;22.30;91.80
9808;DHT22;4943;52.550;13.462;2023-07-08T05:51:18;22.40;91.90
9808;DHT22;4943;52.550;13.462;2023-07-08T05:53:47;22.50;91.90
9808;DHT22;4943;52.550;13.462;2023-07-08T05:56:15;22.50;91.80
9808;DHT22;4943;52.550;13.462;2023-07-08T05:58:43;22.50;91.90
9808;DHT22;4943;52.550;13.462;2023-07-08T06:01:11;22.60;92.00
9808;DHT22;4943;52.550;13.462;2023-07-08T06:03:39;22.60;91.90
9808;DHT22;4943;52.550;13.462;2023-07-08T06:06:07;22.70;92.00
9808;DHT22;4943;52.550;13.462;2023-07-08T06:08:36;22.70;92.00
9808;DHT22;4943;52.550;13.462;2023-07-08T06:11:05;22.80;92.00
9808;DHT22;4943;52.550;13.462;2023-07-08T06:13:33;22.80;91.70
9808;DHT22;4943;52.550;13.462;2023-07-08T06:16:01;22.80;91.60
9808;DHT22;4943;52.550;13.462;2023-07-08T06:18:29;22.90;91.50
9808;DHT22;4943;52.550;13.462;2023-07-08T06:20:58;22.90;91.70
9808;DHT22;4943;52.550;13.462;2023-07-08T06:23:27;22.90;91.80
9808;DHT22;4943;52.550;13.462;2023-07-08T06:25:56;23.00;91.70
9808;DHT22;4943;52.550;13.462;2023-07-08T06:28:25;23.00;91.60
9808;DHT22;4943;52.550;13.462;2023-07-08T06:30:53;23.10;91.60
9808;DHT22;4943;52.550;13.462;2023-07-08T06:33:21;23.10;91.50
9808;DHT22;4943;52.550;13.462;2023-07-08T06:35:49;23.20;91.40
9808;DHT22;4943;52.550;13.462;2023-07-08T06:38:17;23.20;91.50
9808;DHT22;4943;52.550;13.462;2023-07-08T06:40:45;23.30;91.80
9808;DHT22;4943;52.550;13.462;2023-07-08T06:43:13;23.30;91.30
9808;DHT22;4943;52.550;13.462;2023-07-08T06:45:43;23.30;91.40
9808;DHT22;4943;52.550;13.462;2023-07-08T06:48:11;23.40;91.40
9808;DHT22;4943;52.550;13.462;2023-07-08T06:50:41;23.40;91.20
9808;DHT22;4943;52.550;13.462;2023-07-08T06:53:10;23.40;91.10
9808;DHT22;4943;52.550;13.462;2023-07-08T06:55:38;23.50;91.10
9808;DHT22;4943;52.550;13.462;2023-07-08T06:58:09;23.50;91.30
9808;DHT22;4943;52.550;13.462;2023-07-08T07:00:37;23.50;91.20
9808;DHT22;4943;52.550;13.462;2023-07-08T07:03:06;23.60;91.10
9808;DHT22;4943;52.550;13.462;2023-07-08T07:05:34;23.70;91.10
9808;DHT22;4943;52.550;13.462;2023-07-08T07:08:03;23.70;91.20
9808;DHT22;4943;52.550;13.462;2023-07-08T07:10:32;23.80;91.20
9808;DHT22;4943;52.550;13.462;2023-07-08T07:13:03;23.80;91.30
9808;DHT22;4943;52.550;13.462;2023-07-08T07:15:31;23.90;91.30
9808;DHT22;4943;52.550;13.462;2023-07-08T07:17:59;24.00;91.40
9808;DHT22;4943;52.550;13.462;2023-07-08T07:20:29;24.00;91.40
9808;DHT22;4943;52.550;13.462;2023-07-08T07:22:57;24.10;91.60
9808;DHT22;4943;52.550;13.462;2023-07-08T07:25:26;24.10;91.40
9808;DHT22;4943;52.550;13.462;2023-07-08T07:27:54;24.10;90.80
9808;DHT22;4943;52.550;13.462;2023-07-08T07:30:22;24.20;90.80
9808;DHT22;4943;52.550;13.462;2023-07-08T07:32:50;24.20;90.70
9808;DHT22;4943;52.550;13.462;2023-07-08T07:35:18;24.30;90.80
9808;DHT22;4943;52.550;13.462;2023-07-08T07:37:47;24.30;90.80
9808;DHT22;4943;52.550;13.462;2023-07-08T07:40:16;24.40;90.90
9808;DHT22;4943;52.550;13.462;2023-07-08T07:42:45;24.40;90.40
9808;DHT22;4943;52.550;13.462;2023-07-08T07:45:14;24.50;90.20
9808;DHT22;4943;52.550;13.462;2023-07-08T07:47:42;24.50;90.20
9808;DHT22;4943;52.550;13.462;2023-07-08T07:50:10;24.60;90.30
9808;DHT22;4943;52.550;13.462;2023-07-08T07:52:38;24.60;90.40
9808;DHT22;4943;52.550;13.462;2023-07-08T07:55:08;24.70;90.60
9808;DHT22;4943;52.550;13.462;2023-07-08T07:57:36;24.70;90.50
9808;DHT22;4943;52.550;13.462;2023-07-08T08:00:06;24.70;90.50
9808;DHT22;4943;52.550;13.462;2023-07-08T08:02:35;24.80;90.60
9808;DHT22;4943;52.550;13.462;2023-07-08T08:05:04;24.80;90.30
9808;DHT22;4943;52.550;13.462;2023-07-08T08:07:32;24.80;90.30
9808;DHT22;4943;52.550;13.462;2023-07-08T08:10:00;24.80;90.40
9808;DHT22;4943;52.550;13.462;2023-07-08T08:12:30;24.90;90.60
9808;DHT22;4943;52.550;13.462;2023-07-08T08:15:17;24.90;90.60
9808;DHT22;4943;52.550;13.462;2023-07-08T08:17:45;25.00;90.60
9808;DHT22;4943;52.550;13.462;2023-07-08T08:20:16;25.00;90.60
9808;DHT22;4943;52.550;13.462;2023-07-08T08:22:45;25.10;90.40
9808;DHT22;4943;52.550;13.462;2023-07-08T08:25:14;25.10;90.20
9808;DHT22;4943;52.550;13.462;2023-07-08T08:27:43;25.20;90.00
9808;DHT22;4943;52.550;13.462;2023-07-08T08:30:12;25.20;90.10
9808;DHT22;4943;52.550;13.462;2023-07-08T08:32:40;25.30;90.20
9808;DHT22;4943;52.550;13.462;2023-07-08T08:35:09;25.30;90.00
9808;DHT22;4943;52.550;13.462;2023-07-08T08:37:37;25.40;90.00
9808;DHT22;4943;52.550;13.462;2023-07-08T08:40:07;25.50;90.00
9808;DHT22;4943;52.550;13.462;2023-07-08T08:42:41;25.50;89.90
9808;DHT22;4943;52.550;13.462;2023-07-08T08:45:17;25.60;89.30
9808;DHT22;4943;52.550;13.462;2023-07-08T08:47:50;25.60;89.30
9808;DHT22;4943;52.550;13.462;2023-07-08T08:50:29;25.60;89.10
9808;DHT22;4943;52.550;13.462;2023-07-08T08:53:00;25.70;88.60
9808;DHT22;4943;52.550;13.462;2023-07-08T08:55:29;25.70;87.80
9808;DHT22;4943;52.550;13.462;2023-07-08T08:58:06;25.80;87.50
9808;DHT22;4943;52.550;13.462;2023-07-08T09:00:46;25.80;87.10
9808;DHT22;4943;52.550;13.462;2023-07-08T09:03:24;25.90;87.30
9808;DHT22;4943;52.550;13.462;2023-07-08T09:05:58;25.90;86.60
9808;DHT22;4943;52.550;13.462;2023-07-08T09:08:33;25.90;86.20
9808;DHT22;4943;52.550;13.462;2023-07-08T09:11:10;26.00;86.30
9808;DHT22;4943;52.550;13.462;2023-07-08T09:13:39;26.10;85.90
9808;DHT22;4943;52.550;13.462;2023-07-08T09:16:15;26.10;84.00
9808;DHT22;4943;52.550;13.462;2023-07-08T09:18:53;26.20;83.70
9808;DHT22;4943;52.550;13.462;2023-07-08T09:21:25;26.20;82.80
9808;DHT22;4943;52.550;13.462;2023-07-08T09:23:57;26.30;82.70
9808;DHT22;4943;52.550;13.462;2023-07-08T09:26:29;26.30;82.80
9808;DHT22;4943;52.550;13.462;2023-07-08T09:28:58;26.40;82.70
9808;DHT22;4943;52.550;13.462;2023-07-08T09:31:30;26.40;82.60
9808;DHT22;4943;52.550;13.462;2023-07-08T09:34:09;26.50;82.50
9808;DHT22;4943;52.550;13.462;2023-07-08T09:36:40;26.60;82.50
9808;DHT22;4943;52.550;13.462;2023-07-08T09:39:11;26.60;82.40
9808;DHT22;4943;52.550;13.462;2023-07-08T09:41:42;26.70;81.00
9808;DHT22;4943;52.550;13.462;2023-07-08T09:44:19;26.70;81.10
9808;DHT22;4943;52.550;13.462;2023-07-08T09:46:51;26.80;80.50
9808;DHT22;4943;52.550;13.462;2023-07-08T09:49:23;26.80;79.80
9808;DHT22;4943;52.550;13.462;2023-07-08T09:51:52;26.80;78.60
9808;DHT22;4943;52.550;13.462;2023-07-08T09:54:22;26.80;77.50
9808;DHT22;4943;52.550;13.462;2023-07-08T09:57:10;26.80;77.00
9808;DHT22;4943;52.550;13.462;2023-07-08T09:59:43;26.80;77.70
9808;DHT22;4943;52.550;13.462;2023-07-08T10:02:26;26.80;78.00
9808;DHT22;4943;52.550;13.462;2023-07-08T10:04:57;26.80;78.00
9808;DHT22;4943;52.550;13.462;2023-07-08T10:07:28;26.90;78.30
9808;DHT22;4943;52.550;13.462;2023-07-08T10:10:00;27.00;78.20
9808;DHT22;4943;52.550;13.462;2023-07-08T10:12:30;27.10;77.30
9808;DHT22;4943;52.550;13.462;2023-07-08T10:15:03;27.10;77.10
9808;DHT22;4943;52.550;13.462;2023-07-08T10:17:38;27.10;75.90
9808;DHT22;4943;52.550;13.462;2023-07-08T10:20:11;27.20;74.90
9808;DHT22;4943;52.550;13.462;2023-07-08T10:22:46;27.20;74.40
9808;DHT22;4943;52.550;13.462;2023-07-08T10:25:25;27.30;74.00
9808;DHT22;4943;52.550;13.462;2023-07-08T10:27:59;27.20;72.50
9808;DHT22;4943;52.550;13.462;2023-07-08T10:30:35;27.20;73.50
9808;DHT22;4943;52.550;13.462;2023-07-08T10:33:31;27.30;73.60
9808;DHT22;4943;52.550;13.462;2023-07-08T10:36:10;27.30;72.70
9808;DHT22;4943;52.550;13.462;2023-07-08T10:38:50;27.40;73.40
9808;DHT22;4943;52.550;13.462;2023-07-08T10:41:26;27.40;72.70
9808;DHT22;4943;52.550;13.462;2023-07-08T10:44:05;27.40;72.70
9808;DHT22;4943;52.550;13.462;2023-07-08T10:46:49;27.40;73.40
9808;DHT22;4943;52.550;13.462;2023-07-08T10:49:51;27.40;72.60
9808;DHT22;4943;52.550;13.462;2023-07-08T10:52:36;27.50;71.80
9808;DHT22;4943;52.550;13.462;2023-07-08T10:55:26;27.50;73.00
9808;DHT22;4943;52.550;13.462;2023-07-08T10:58:21;27.50;73.10
9808;DHT22;4943;52.550;13.462;2023-07-08T11:00:59;27.60;73.30
9808;DHT22;4943;52.550;13.462;2023-07-08T11:03:58;27.60;73.30
9808;DHT22;4943;52.550;13.462;2023-07-08T11:06:41;27.60;73.60
9808;DHT22;4943;52.550;13.462;2023-07-08T11:09:15;27.70;73.00
9808;DHT22;4943;52.550;13.462;2023-07-08T11:11:51;27.80;72.40
9808;DHT22;4943;52.550;13.462;2023-07-08T11:14:25;27.80;71.50
9808;DHT22;4943;52.550;13.462;2023-07-08T11:17:02;27.80;71.40
9808;DHT22;4943;52.550;13.462;2023-07-08T11:19:37;27.80;72.40
9808;DHT22;4943;52.550;13.462;2023-07-08T11:22:10;27.90;71.80
9808;DHT22;4943;52.550;13.462;2023-07-08T11:24:43;27.90;71.30
9808;DHT22;4943;52.550;13.462;2023-07-08T11:27:16;28.00;71.30
9808;DHT22;4943;52.550;13.462;2023-07-08T11:29:51;28.00;70.40
9808;DHT22;4943;52.550;13.462;2023-07-08T11:32:21;28.00;70.60
9808;DHT22;4943;52.550;13.462;2023-07-08T11:34:52;28.10;71.30
9808;DHT22;4943;52.550;13.462;2023-07-08T11:37:22;28.10;71.40
9808;DHT22;4943;52.550;13.462;2023-07-08T11:39:57;28.10;71.50
9808;DHT22;4943;52.550;13.462;2023-07-08T11:42:35;28.20;71.70
9808;DHT22;4943;52.550;13.462;2023-07-08T11:45:23;28.20;71.80
9808;DHT22;4943;52.550;13.462;2023-07-08T11:47:52;28.30;72.00
9808;DHT22;4943;52.550;13.462;2023-07-08T11:50:24;28.40;71.90
9808;DHT22;4943;52.550;13.462;2023-07-08T11:52:59;28.50;71.70
9808;DHT22;4943;52.550;13.462;2023-07-08T11:55:37;28.60;71.70
9808;DHT22;4943;52.550;13.462;2023-07-08T11:58:07;28.70;71.90
9808;DHT22;4943;52.550;13.462;2023-07-08T12:00:37;28.80;70.90
9808;DHT22;4943;52.550;13.462;2023-07-08T12:03:20;28.80;70.30
9808;DHT22;4943;52.550;13.462;2023-07-08T12:05:48;28.80;70.50
9808;DHT22;4943;52.550;13.462;2023-07-08T12:08:19;28.70;70.40
9808;DHT22;4943;52.550;13.462;2023-07-08T12:10:50;28.70;70.30
9808;DHT22;4943;52.550;13.462;2023-07-08T12:13:22;28.70;70.50
9808;DHT22;4943;52.550;13.462;2023-07-08T12:15:52;28.70;70.80
9808;DHT22;4943;52.550;13.462;2023-07-08T12:18:25;28.70;69.10
9808;DHT22;4943;52.550;13.462;2023-07-08T12:20:58;28.70;69.80
9808;DHT22;4943;52.550;13.462;2023-07-08T12:23:29;28.80;69.30
9808;DHT22;4943;52.550;13.462;2023-07-08T12:25:58;28.80;69.30
9808;DHT22;4943;52.550;13.462;2023-07-08T12:28:26;28.80;70.20
9808;DHT22;4943;52.550;13.462;2023-07-08T12:30:54;28.80;69.30
9808;DHT22;4943;52.550;13.462;2023-07-08T12:33:27;28.80;69.50
9808;DHT22;4943;52.550;13.462;2023-07-08T12:35:56;28.80;69.70
9808;DHT22;4943;52.550;13.462;2023-07-08T12:38:29;28.90;69.50
9808;DHT22;4943;52.550;13.462;2023-07-08T12:41:00;28.90;69.50
9808;DHT22;4943;52.550;13.462;2023-07-08T12:43:29;28.90;69.30
9808;DHT22;4943;52.550;13.462;2023-07-08T12:45:57;29.00;69.70
9808;DHT22;4943;52.550;13.462;2023-07-08T12:48:31;29.00;68.80
9808;DHT22;4943;52.550;13.462;2023-07-08T12:50:59;29.00;68.20
9808;DHT22;4943;52.550;13.462;2023-07-08T12:53:29;29.00;68.50
9808;DHT22;4943;52.550;13.462;2023-07-08T12:55:59;29.10;68.60
9808;DHT22;4943;52.550;13.462;2023-07-08T12:58:30;29.10;68.60
9808;DHT22;4943;52.550;13.462;2023-07-08T13:01:01;29.10;67.40
9808;DHT22;4943;52.550;13.462;2023-07-08T13:03:34;29.20;68.10
9808;DHT22;4943;52.550;13.462;2023-07-08T13:06:04;29.20;68.30
9808;DHT22;4943;52.550;13.462;2023-07-08T13:08:36;29.30;68.00
9808;DHT22;4943;52.550;13.462;2023-07-08T13:11:05;29.40;67.90
9808;DHT22;4943;52.550;13.462;2023-07-08T13:13:36;29.40;67.90
9808;DHT22;4943;52.550;13.462;2023-07-08T13:16:05;29.50;68.40
9808;DHT22;4943;52.550;13.462;2023-07-08T13:18:36;29.60;67.50
9808;DHT22;4943;52.550;13.462;2023-07-08T13:21:05;29.70;67.50
9808;DHT22;4943;52.550;13.462;2023-07-08T13:23:36;29.70;67.20
9808;DHT22;4943;52.550;13.462;2023-07-08T13:26:12;29.70;67.20
9808;DHT22;4943;52.550;13.462;2023-07-08T13:28:41;29.70;67.20
9808;DHT22;4943;52.550;13.462;2023-07-08T13:31:16;29.70;67.00
9808;DHT22;4943;52.550;13.462;2023-07-08T13:33:52;29.80;66.80
9808;DHT22;4943;52.550;13.462;2023-07-08T13:36:22;29.70;66.00
9808;DHT22;4943;52.550;13.462;2023-07-08T13:38:52;29.70;64.80
9808;DHT22;4943;52.550;13.462;2023-07-08T13:41:22;29.70;65.90
9808;DHT22;4943;52.550;13.462;2023-07-08T13:43:50;29.80;66.50
9808;DHT22;4943;52.550;13.462;2023-07-08T13:46:34;29.80;66.10
9808;DHT22;4943;52.550;13.462;2023-07-08T13:49:11;29.80;66.20
9808;DHT22;4943;52.550;13.462;2023-07-08T13:51:40;29.90;66.30
9808;DHT22;4943;52.550;13.462;2023-07-08T13:54:15;29.90;66.00
9808;DHT22;4943;52.550;13.462;2023-07-08T13:56:44;29.90;66.20
9808;DHT22;4943;52.550;13.462;2023-07-08T13:59:17;30.00;66.20
9808;DHT22;4943;52.550;13.462;2023-07-08T14:01:46;30.00;66.60
9808;DHT22;4943;52.550;13.462;2023-07-08T14:04:17;30.10;65.60
9808;DHT22;4943;52.550;13.462;2023-07-08T14:06:46;30.10;65.20
9808;DHT22;4943;52.550;13.462;2023-07-08T14:09:17;30.10;65.60
9808;DHT22;4943;52.550;13.462;2023-07-08T14:11:46;30.10;65.50
9808;DHT22;4943;52.550;13.462;2023-07-08T14:14:15;30.10;65.10
9808;DHT22;4943;52.550;13.462;2023-07-08T14:16:45;30.10;65.20
9808;DHT22;4943;52.550;13.462;2023-07-08T14:19:16;30.20;65.10
9808;DHT22;4943;52.550;13.462;2023-07-08T14:21:45;30.20;65.40
9808;DHT22;4943;52.550;13.462;2023-07-08T14:24:15;30.20;65.00
9808;DHT22;4943;52.550;13.462;2023-07-08T14:26:44;30.30;65.30
9808;DHT22;4943;52.550;13.462;2023-07-08T14:29:12;30.40;65.40
9808;DHT22;4943;52.550;13.462;2023-07-08T14:31:41;30.40;64.90
9808;DHT22;4943;52.550;13.462;2023-07-08T14:34:12;30.40;64.50
9808;DHT22;4943;52.550;13.462;2023-07-08T14:36:42;30.50;64.50
9808;DHT22;4943;52.550;13.462;2023-07-08T14:39:12;30.50;64.70
9808;DHT22;4943;52.550;13.462;2023-07-08T14:41:43;30.60;64.30
9808;DHT22;4943;52.550;13.462;2023-07-08T14:44:20;30.60;64.30
9808;DHT22;4943;52.550;13.462;2023-07-08T14:46:49;30.60;64.40
9808;DHT22;4943;52.550;13.462;2023-07-08T14:49:19;30.70;64.50
9808;DHT22;4943;52.550;13.462;2023-07-08T14:51:48;30.70;64.10
9808;DHT22;4943;52.550;13.462;2023-07-08T14:54:17;30.80;64.20
9808;DHT22;4943;52.550;13.462;2023-07-08T14:56:47;30.90;63.30
9808;DHT22;4943;52.550;13.462;2023-07-08T14:59:18;30.90;62.60
9808;DHT22;4943;52.550;13.462;2023-07-08T15:01:46;31.00;63.30
9808;DHT22;4943;52.550;13.462;2023-07-08T15:04:17;31.10;62.60
9808;DHT22;4943;52.550;13.462;2023-07-08T15:06:46;31.30;63.20
9808;DHT22;4943;52.550;13.462;2023-07-08T15:09:14;31.40;62.20
9808;DHT22;4943;52.550;13.462;2023-07-08T15:11:44;31.60;61.80
9808;DHT22;4943;52.550;13.462;2023-07-08T15:14:18;31.60;61.80
9808;DHT22;4943;52.550;13.462;2023-07-08T15:16:47;31.70;61.60
9808;DHT22;4943;52.550;13.462;2023-07-08T15:19:15;31.80;62.50
9808;DHT22;4943;52.550;13.462;2023-07-08T15:21:43;32.00;62.50
9808;DHT22;4943;52.550;13.462;2023-07-08T15:24:12;32.20;62.50
9808;DHT22;4943;52.550;13.462;2023-07-08T15:26:44;32.40;61.90
9808;DHT22;4943;52.550;13.462;2023-07-08T15:29:16;32.50;62.00
9808;DHT22;4943;52.550;13.462;2023-07-08T15:31:45;32.60;61.80
9808;DHT22;4943;52.550;13.462;2023-07-08T15:34:16;32.80;61.70
9808;DHT22;4943;52.550;13.462;2023-07-08T15:36:46;32.80;61.30
9808;DHT22;4943;52.550;13.462;2023-07-08T15:39:14;32.90;61.20
9808;DHT22;4943;52.550;13.462;2023-07-08T15:41:43;33.10;61.40
9808;DHT22;4943;52.550;13.462;2023-07-08T15:44:13;33.20;60.90
9808;DHT22;4943;52.550;13.462;2023-07-08T15:46:45;33.30;60.90
9808;DHT22;4943;52.550;13.462;2023-07-08T15:49:15;33.40;61.60
9808;DHT22;4943;52.550;13.462;2023-07-08T15:51:44;33.60;61.10
9808;DHT22;4943;52.550;13.462;2023-07-08T15:54:16;33.70;60.90
9808;DHT22;4943;52.550;13.462;2023-07-08T15:56:45;34.00;61.30
9808;DHT22;4943;52.550;13.462;2023-07-08T15:59:16;34.10;59.80
9808;DHT22;4943;52.550;13.462;2023-07-08T16:01:46;34.10;58.90
9808;DHT22;4943;52.550;13.462;2023-07-08T16:04:21;34.20;59.30
9808;DHT22;4943;52.550;13.462;2023-07-08T16:06:50;34.20;59.50
9808;DHT22;4943;52.550;13.462;2023-07-08T16:09:18;34.40;59.70